sensor_id;sensor_type;location;lat;lon;timestamp;P1;durP1;ratioP1;P2;durP2;ratioP2
83247;SDS011;73465;51.038;7.052;2024-03-25T00:02:10;23.98;;;3.95;;
83247;SDS011;73465;51.038;7.052;2024-03-25T00:04:35;24.92;;;3.63;;
83247;SDS011;73465;51.038;7.052;2024-03-25T00:07:01;33.45;;;5.93;;
83247;SDS011;73465;51.038;7.052;2024-03-25T00:09:27;20.67;;;3.85;;
83247;SDS011;73465;51.038;7.052;2024-03-25T00:11:55;17.30;;;3.35;;
83247;SDS011;73465;51.038;7.052;2024-03-25T00:14:21;21.10;;;3.63;;
83247;SDS011;73465;51.038;7.052;2024-03-25T00:16:46;24.98;;;3.75;;
83247;SDS011;73465;51.038;7.052;2024-03-25T00:19:12;17.33;;;3.42;;
83247;SDS011;73465;51.038;7.052;2024-03-25T00:21:37;19.70;;;3.70;;
83247;SDS011;73465;51.038;7.052;2024-03-25T00:24:03;13.38;;;3.13;;
83247;SDS011;73465;51.038;7.052;2024-03-25T00:26:29;14.50;;;2.97;;
83247;SDS011;73465;51.038;7.052;2024-03-25T00:28:54;20.27;;;3.33;;
83247;SDS011;73465;51.038;7.052;2024-03-25T00:31:19;17.45;;;3.22;;
83247;SDS011;73465;51.038;7.052;2024-03-25T00:33:44;22.27;;;3.45;;
83247;SDS011;73465;51.038;7.052;2024-03-25T00:36:10;21.45;;;3.38;;
83247;SDS011;73465;51.038;7.052;2024-03-25T00:38:35;29.40;;;4.90;;
83247;SDS011;73465;51.038;7.052;2024-03-25T00:41:00;25.05;;;3.53;;
83247;SDS011;73465;51.038;7.052;2024-03-25T00:43:26;20.10;;;3.38;;
83247;SDS011;73465;51.038;7.052;2024-03-25T00:45:51;19.70;;;3.58;;
83247;SDS011;73465;51.038;7.052;2024-03-25T00:48:16;17.15;;;3.38;;
83247;SDS011;73465;51.038;7.052;2024-03-25T00:50:42;16.90;;;4.03;;
83247;SDS011;73465;51.038;7.052;2024-03-25T00:53:07;20.95;;;4.43;;
83247;SDS011;73465;51.038;7.052;2024-03-25T00:55:33;17.50;;;3.88;;
83247;SDS011;73465;51.038;7.052;2024-03-25T00:57:59;18.05;;;4.13;;
83247;SDS011;73465;51.038;7.052;2024-03-25T01:00:25;29.15;;;3.92;;
83247;SDS011;73465;51.038;7.052;2024-03-25T01:02:50;25.38;;;4.40;;
83247;SDS011;73465;51.038;7.052;2024-03-25T01:05:15;23.88;;;4.93;;
83247;SDS011;73465;51.038;7.052;2024-03-25T01:07:41;23.20;;;4.88;;
83247;SDS011;73465;51.038;7.052;2024-03-25T01:10:06;15.82;;;4.80;;
83247;SDS011;73465;51.038;7.052;2024-03-25T01:12:32;22.38;;;5.78;;
83247;SDS011;73465;51.038;7.052;2024-03-25T01:14:57;24.98;;;4.93;;
83247;SDS011;73465;51.038;7.052;2024-03-25T01:17:22;16.75;;;4.82;;
83247;SDS011;73465;51.038;7.052;2024-03-25T01:19:48;19.90;;;3.90;;
83247;SDS011;73465;51.038;7.052;2024-03-25T01:22:13;17.98;;;4.60;;
83247;SDS011;73465;51.038;7.052;2024-03-25T01:24:39;20.48;;;5.00;;
83247;SDS011;73465;51.038;7.052;2024-03-25T01:27:08;20.60;;;4.15;;
83247;SDS011;73465;51.038;7.052;2024-03-25T01:29:42;21.60;;;4.68;;
83247;SDS011;73465;51.038;7.052;2024-03-25T01:32:13;22.35;;;4.18;;
83247;SDS011;73465;51.038;7.052;2024-03-25T01:34:39;20.20;;;4.28;;
83247;SDS011;73465;51.038;7.052;2024-03-25T01:37:05;23.77;;;4.93;;
83247;SDS011;73465;51.038;7.052;2024-03-25T01:39:30;22.58;;;4.72;;
83247;SDS011;73465;51.038;7.052;2024-03-25T01:41:55;17.73;;;4.03;;
83247;SDS011;73465;51.038;7.052;2024-03-25T01:44:24;20.00;;;5.07;;
83247;SDS011;73465;51.038;7.052;2024-03-25T01:46:49;22.17;;;4.22;;
83247;SDS011;73465;51.038;7.052;2024-03-25T01:49:15;16.40;;;4.32;;
83247;SDS011;73465;51.038;7.052;2024-03-25T01:51:40;32.92;;;4.43;;
83247;SDS011;73465;51.038;7.052;2024-03-25T01:54:07;12.60;;;2.70;;
83247;SDS011;73465;51.038;7.052;2024-03-25T01:56:33;23.23;;;4.65;;
83247;SDS011;73465;51.038;7.052;2024-03-25T01:59:01;16.80;;;4.05;;
83247;SDS011;73465;51.038;7.052;2024-03-25T02:01:28;23.35;;;4.53;;
83247;SDS011;73465;51.038;7.052;2024-03-25T02:03:54;18.13;;;4.20;;
83247;SDS011;73465;51.038;7.052;2024-03-25T02:06:20;23.77;;;5.15;;
83247;SDS011;73465;51.038;7.052;2024-03-25T02:08:46;22.52;;;5.18;;
83247;SDS011;73465;51.038;7.052;2024-03-25T02:11:13;26.60;;;6.57;;
83247;SDS011;73465;51.038;7.052;2024-03-25T02:13:39;19.25;;;3.78;;
83247;SDS011;73465;51.038;7.052;2024-03-25T02:16:05;29.50;;;5.50;;
83247;SDS011;73465;51.038;7.052;2024-03-25T02:18:30;18.67;;;4.10;;
83247;SDS011;73465;51.038;7.052;2024-03-25T02:20:59;17.63;;;4.63;;
83247;SDS011;73465;51.038;7.052;2024-03-25T02:23:26;21.65;;;4.75;;
83247;SDS011;73465;51.038;7.052;2024-03-25T02:25:52;14.95;;;3.67;;
83247;SDS011;73465;51.038;7.052;2024-03-25T02:28:18;17.83;;;4.35;;
83247;SDS011;73465;51.038;7.052;2024-03-25T02:30:44;17.90;;;4.57;;
83247;SDS011;73465;51.038;7.052;2024-03-25T02:33:09;24.23;;;5.25;;
83247;SDS011;73465;51.038;7.052;2024-03-25T02:35:35;23.10;;;3.75;;
83247;SDS011;73465;51.038;7.052;2024-03-25T02:38:04;18.85;;;4.45;;
83247;SDS011;73465;51.038;7.052;2024-03-25T02:40:29;39.03;;;5.68;;
83247;SDS011;73465;51.038;7.052;2024-03-25T02:42:55;19.88;;;4.25;;
83247;SDS011;73465;51.038;7.052;2024-03-25T02:45:20;21.85;;;3.85;;
83247;SDS011;73465;51.038;7.052;2024-03-25T02:47:46;21.65;;;3.78;;
83247;SDS011;73465;51.038;7.052;2024-03-25T02:50:12;25.33;;;4.43;;
83247;SDS011;73465;51.038;7.052;2024-03-25T02:52:37;26.02;;;4.60;;
83247;SDS011;73465;51.038;7.052;2024-03-25T02:55:02;27.70;;;4.78;;
83247;SDS011;73465;51.038;7.052;2024-03-25T02:57:28;28.02;;;4.25;;
83247;SDS011;73465;51.038;7.052;2024-03-25T02:59:53;15.25;;;3.08;;
83247;SDS011;73465;51.038;7.052;2024-03-25T03:02:19;25.98;;;5.80;;
83247;SDS011;73465;51.038;7.052;2024-03-25T03:04:44;17.73;;;4.00;;
83247;SDS011;73465;51.038;7.052;2024-03-25T03:07:09;30.58;;;4.07;;
83247;SDS011;73465;51.038;7.052;2024-03-25T03:09:35;19.50;;;4.45;;
83247;SDS011;73465;51.038;7.052;2024-03-25T03:12:00;28.00;;;2.97;;
83247;SDS011;73465;51.038;7.052;2024-03-25T03:14:25;16.83;;;3.22;;
83247;SDS011;73465;51.038;7.052;2024-03-25T03:16:51;17.73;;;4.32;;
83247;SDS011;73465;51.038;7.052;2024-03-25T03:19:19;29.35;;;4.40;;
83247;SDS011;73465;51.038;7.052;2024-03-25T03:21:45;20.25;;;4.07;;
83247;SDS011;73465;51.038;7.052;2024-03-25T03:24:10;17.17;;;3.55;;
83247;SDS011;73465;51.038;7.052;2024-03-25T03:26:36;23.10;;;4.03;;
83247;SDS011;73465;51.038;7.052;2024-03-25T03:29:01;20.95;;;4.07;;
83247;SDS011;73465;51.038;7.052;2024-03-25T03:31:28;16.63;;;3.15;;
83247;SDS011;73465;51.038;7.052;2024-03-25T03:33:53;20.05;;;4.13;;
83247;SDS011;73465;51.038;7.052;2024-03-25T03:36:19;22.13;;;4.05;;
83247;SDS011;73465;51.038;7.052;2024-03-25T03:38:50;31.02;;;5.10;;
83247;SDS011;73465;51.038;7.052;2024-03-25T03:41:16;27.23;;;4.32;;
83247;SDS011;73465;51.038;7.052;2024-03-25T03:43:42;23.63;;;4.72;;
83247;SDS011;73465;51.038;7.052;2024-03-25T03:46:07;25.25;;;4.30;;
83247;SDS011;73465;51.038;7.052;2024-03-25T03:48:33;21.05;;;4.18;;
83247;SDS011;73465;51.038;7.052;2024-03-25T03:50:58;21.45;;;3.50;;
83247;SDS011;73465;51.038;7.052;2024-03-25T03:53:24;26.23;;;4.57;;
83247;SDS011;73465;51.038;7.052;2024-03-25T03:55:53;18.90;;;3.72;;
83247;SDS011;73465;51.038;7.052;2024-03-25T03:58:24;21.65;;;3.58;;
83247;SDS011;73465;51.038;7.052;2024-03-25T04:00:50;23.58;;;5.30;;
83247;SDS011;73465;51.038;7.052;2024-03-25T04:03:16;24.08;;;4.05;;
83247;SDS011;73465;51.038;7.052;2024-03-25T04:05:42;28.13;;;4.55;;
83247;SDS011;73465;51.038;7.052;2024-03-25T04:08:07;23.92;;;4.25;;
83247;SDS011;73465;51.038;7.052;2024-03-25T04:10:33;23.95;;;4.63;;
83247;SDS011;73465;51.038;7.052;2024-03-25T04:12:59;22.13;;;4.20;;
83247;SDS011;73465;51.038;7.052;2024-03-25T04:15:24;26.80;;;4.15;;
83247;SDS011;73465;51.038;7.052;2024-03-25T04:17:51;24.52;;;4.13;;
83247;SDS011;73465;51.038;7.052;2024-03-25T04:20:16;34.58;;;5.35;;
83247;SDS011;73465;51.038;7.052;2024-03-25T04:22:42;26.15;;;4.30;;
83247;SDS011;73465;51.038;7.052;2024-03-25T04:25:08;23.17;;;4.75;;
83247;SDS011;73465;51.038;7.052;2024-03-25T04:27:36;18.58;;;3.75;;
83247;SDS011;73465;51.038;7.052;2024-03-25T04:30:06;32.60;;;3.97;;
83247;SDS011;73465;51.038;7.052;2024-03-25T04:32:33;27.70;;;3.72;;
83247;SDS011;73465;51.038;7.052;2024-03-25T04:34:59;22.35;;;3.70;;
83247;SDS011;73465;51.038;7.052;2024-03-25T04:37:24;18.38;;;3.85;;
83247;SDS011;73465;51.038;7.052;2024-03-25T04:39:49;29.15;;;3.95;;
83247;SDS011;73465;51.038;7.052;2024-03-25T04:42:15;19.45;;;4.22;;
83247;SDS011;73465;51.038;7.052;2024-03-25T04:44:40;23.60;;;3.30;;
83247;SDS011;73465;51.038;7.052;2024-03-25T04:47:05;13.23;;;3.33;;
83247;SDS011;73465;51.038;7.052;2024-03-25T04:49:31;19.25;;;4.10;;
83247;SDS011;73465;51.038;7.052;2024-03-25T04:51:56;31.30;;;4.82;;
83247;SDS011;73465;51.038;7.052;2024-03-25T04:54:22;34.80;;;4.47;;
83247;SDS011;73465;51.038;7.052;2024-03-25T04:56:47;33.25;;;4.88;;
83247;SDS011;73465;51.038;7.052;2024-03-25T04:59:12;18.15;;;3.72;;
83247;SDS011;73465;51.038;7.052;2024-03-25T05:01:39;26.85;;;4.57;;
83247;SDS011;73465;51.038;7.052;2024-03-25T05:04:04;31.38;;;3.83;;
83247;SDS011;73465;51.038;7.052;2024-03-25T05:06:34;29.05;;;4.97;;
83247;SDS011;73465;51.038;7.052;2024-03-25T05:08:59;24.27;;;4.32;;
83247;SDS011;73465;51.038;7.052;2024-03-25T05:11:25;28.17;;;4.68;;
83247;SDS011;73465;51.038;7.052;2024-03-25T05:13:50;30.23;;;5.38;;
83247;SDS011;73465;51.038;7.052;2024-03-25T05:16:16;30.00;;;4.88;;
83247;SDS011;73465;51.038;7.052;2024-03-25T05:18:41;26.80;;;5.68;;
83247;SDS011;73465;51.038;7.052;2024-03-25T05:21:06;30.70;;;5.55;;
83247;SDS011;73465;51.038;7.052;2024-03-25T05:23:31;28.13;;;6.05;;
83247;SDS011;73465;51.038;7.052;2024-03-25T05:25:57;42.33;;;6.93;;
83247;SDS011;73465;51.038;7.052;2024-03-25T05:28:22;22.42;;;4.72;;
83247;SDS011;73465;51.038;7.052;2024-03-25T05:30:47;39.25;;;6.32;;
83247;SDS011;73465;51.038;7.052;2024-03-25T05:33:14;22.50;;;4.55;;
83247;SDS011;73465;51.038;7.052;2024-03-25T05:35:40;27.33;;;5.35;;
83247;SDS011;73465;51.038;7.052;2024-03-25T05:38:06;48.13;;;7.57;;
83247;SDS011;73465;51.038;7.052;2024-03-25T05:40:32;36.95;;;7.60;;
83247;SDS011;73465;51.038;7.052;2024-03-25T05:42:57;23.05;;;5.00;;
83247;SDS011;73465;51.038;7.052;2024-03-25T05:45:23;30.17;;;5.22;;
83247;SDS011;73465;51.038;7.052;2024-03-25T05:47:52;42.78;;;6.65;;
83247;SDS011;73465;51.038;7.052;2024-03-25T05:50:17;40.13;;;12.52;;
83247;SDS011;73465;51.038;7.052;2024-03-25T05:52:42;29.90;;;6.82;;
83247;SDS011;73465;51.038;7.052;2024-03-25T05:55:12;31.50;;;5.15;;
83247;SDS011;73465;51.038;7.052;2024-03-25T05:57:38;30.10;;;5.22;;
83247;SDS011;73465;51.038;7.052;2024-03-25T06:00:03;29.17;;;4.72;;
83247;SDS011;73465;51.038;7.052;2024-03-25T06:02:29;17.33;;;4.82;;
83247;SDS011;73465;51.038;7.052;2024-03-25T06:04:55;44.17;;;5.53;;
83247;SDS011;73465;51.038;7.052;2024-03-25T06:07:21;34.65;;;5.88;;
83247;SDS011;73465;51.038;7.052;2024-03-25T06:09:47;27.00;;;5.78;;
83247;SDS011;73465;51.038;7.052;2024-03-25T06:12:12;31.73;;;6.30;;
83247;SDS011;73465;51.038;7.052;2024-03-25T06:14:38;34.50;;;5.57;;
83247;SDS011;73465;51.038;7.052;2024-03-25T06:17:03;31.92;;;5.40;;
83247;SDS011;73465;51.038;7.052;2024-03-25T06:19:29;31.50;;;5.78;;
83247;SDS011;73465;51.038;7.052;2024-03-25T06:21:54;31.55;;;6.32;;
83247;SDS011;73465;51.038;7.052;2024-03-25T06:24:23;31.35;;;5.35;;
83247;SDS011;73465;51.038;7.052;2024-03-25T06:26:49;29.77;;;5.80;;
83247;SDS011;73465;51.038;7.052;2024-03-25T06:29:19;38.40;;;5.00;;
83247;SDS011;73465;51.038;7.052;2024-03-25T06:31:54;25.60;;;4.63;;
83247;SDS011;73465;51.038;7.052;2024-03-25T06:34:38;24.40;;;5.85;;
83247;SDS011;73465;51.038;7.052;2024-03-25T06:37:05;23.42;;;5.72;;
83247;SDS011;73465;51.038;7.052;2024-03-25T06:39:30;27.77;;;4.70;;
83247;SDS011;73465;51.038;7.052;2024-03-25T06:41:56;25.73;;;5.72;;
83247;SDS011;73465;51.038;7.052;2024-03-25T06:44:23;20.45;;;5.13;;
83247;SDS011;73465;51.038;7.052;2024-03-25T06:46:50;24.80;;;5.03;;
83247;SDS011;73465;51.038;7.052;2024-03-25T06:49:18;20.10;;;5.22;;
83247;SDS011;73465;51.038;7.052;2024-03-25T06:51:43;20.52;;;4.75;;
83247;SDS011;73465;51.038;7.052;2024-03-25T06:54:09;27.15;;;5.00;;
83247;SDS011;73465;51.038;7.052;2024-03-25T06:56:34;21.35;;;6.45;;
83247;SDS011;73465;51.038;7.052;2024-03-25T06:59:10;27.88;;;6.13;;
83247;SDS011;73465;51.038;7.052;2024-03-25T07:01:46;30.58;;;7.40;;
83247;SDS011;73465;51.038;7.052;2024-03-25T07:04:11;26.67;;;6.10;;
83247;SDS011;73465;51.038;7.052;2024-03-25T07:06:36;27.90;;;5.97;;
83247;SDS011;73465;51.038;7.052;2024-03-25T07:09:02;22.50;;;6.50;;
83247;SDS011;73465;51.038;7.052;2024-03-25T07:11:28;28.73;;;5.70;;
83247;SDS011;73465;51.038;7.052;2024-03-25T07:13:54;27.98;;;6.60;;
83247;SDS011;73465;51.038;7.052;2024-03-25T07:16:19;28.48;;;5.90;;
83247;SDS011;73465;51.038;7.052;2024-03-25T07:18:44;32.63;;;6.05;;
83247;SDS011;73465;51.038;7.052;2024-03-25T07:21:10;24.05;;;5.70;;
83247;SDS011;73465;51.038;7.052;2024-03-25T07:23:35;26.27;;;5.03;;
83247;SDS011;73465;51.038;7.052;2024-03-25T07:26:00;25.63;;;4.85;;
83247;SDS011;73465;51.038;7.052;2024-03-25T07:28:25;26.27;;;5.82;;
83247;SDS011;73465;51.038;7.052;2024-03-25T07:30:51;30.40;;;5.40;;
83247;SDS011;73465;51.038;7.052;2024-03-25T07:33:16;21.35;;;4.82;;
83247;SDS011;73465;51.038;7.052;2024-03-25T07:35:42;19.27;;;5.28;;
83247;SDS011;73465;51.038;7.052;2024-03-25T07:38:08;26.92;;;6.03;;
83247;SDS011;73465;51.038;7.052;2024-03-25T07:40:33;22.30;;;4.95;;
83247;SDS011;73465;51.038;7.052;2024-03-25T07:42:58;26.30;;;4.97;;
83247;SDS011;73465;51.038;7.052;2024-03-25T07:45:24;22.50;;;5.25;;
83247;SDS011;73465;51.038;7.052;2024-03-25T07:47:49;27.88;;;6.70;;
83247;SDS011;73465;51.038;7.052;2024-03-25T07:50:14;15.90;;;4.43;;
83247;SDS011;73465;51.038;7.052;2024-03-25T07:52:40;21.90;;;5.90;;
83247;SDS011;73465;51.038;7.052;2024-03-25T07:55:08;24.85;;;5.38;;
83247;SDS011;73465;51.038;7.052;2024-03-25T07:57:34;30.90;;;5.90;;
83247;SDS011;73465;51.038;7.052;2024-03-25T07:59:59;22.60;;;6.38;;
83247;SDS011;73465;51.038;7.052;2024-03-25T08:02:25;21.02;;;6.88;;
83247;SDS011;73465;51.038;7.052;2024-03-25T08:04:50;16.92;;;4.90;;
83247;SDS011;73465;51.038;7.052;2024-03-25T08:07:15;23.23;;;5.85;;
83247;SDS011;73465;51.038;7.052;2024-03-25T08:09:41;17.98;;;5.38;;
83247;SDS011;73465;51.038;7.052;2024-03-25T08:12:06;19.85;;;6.47;;
83247;SDS011;73465;51.038;7.052;2024-03-25T08:14:32;28.10;;;5.40;;
83247;SDS011;73465;51.038;7.052;2024-03-25T08:16:57;21.33;;;5.20;;
83247;SDS011;73465;51.038;7.052;2024-03-25T08:19:22;21.70;;;5.03;;
83247;SDS011;73465;51.038;7.052;2024-03-25T08:21:48;15.20;;;4.55;;
83247;SDS011;73465;51.038;7.052;2024-03-25T08:24:14;27.33;;;4.80;;
83247;SDS011;73465;51.038;7.052;2024-03-25T08:26:40;15.25;;;4.40;;
83247;SDS011;73465;51.038;7.052;2024-03-25T08:29:06;21.73;;;6.22;;
83247;SDS011;73465;51.038;7.052;2024-03-25T08:31:31;15.45;;;4.65;;
83247;SDS011;73465;51.038;7.052;2024-03-25T08:33:56;16.80;;;4.72;;
83247;SDS011;73465;51.038;7.052;2024-03-25T08:36:21;15.40;;;4.22;;
83247;SDS011;73465;51.038;7.052;2024-03-25T08:38:47;19.95;;;4.57;;
83247;SDS011;73465;51.038;7.052;2024-03-25T08:41:12;32.28;;;5.45;;
83247;SDS011;73465;51.038;7.052;2024-03-25T08:43:38;19.63;;;4.28;;
83247;SDS011;73465;51.038;7.052;2024-03-25T08:46:03;19.85;;;3.60;;
83247;SDS011;73465;51.038;7.052;2024-03-25T08:48:28;21.30;;;4.70;;
83247;SDS011;73465;51.038;7.052;2024-03-25T08:50:54;21.98;;;4.20;;
83247;SDS011;73465;51.038;7.052;2024-03-25T08:53:19;8.95;;;2.83;;
83247;SDS011;73465;51.038;7.052;2024-03-25T08:55:45;12.07;;;2.63;;
83247;SDS011;73465;51.038;7.052;2024-03-25T08:58:11;16.48;;;3.05;;
83247;SDS011;73465;51.038;7.052;2024-03-25T09:00:40;13.75;;;3.60;;
83247;SDS011;73465;51.038;7.052;2024-03-25T09:03:05;22.25;;;2.78;;
83247;SDS011;73465;51.038;7.052;2024-03-25T09:05:31;13.05;;;2.95;;
83247;SDS011;73465;51.038;7.052;2024-03-25T09:08:00;13.02;;;3.15;;
83247;SDS011;73465;51.038;7.052;2024-03-25T09:10:27;11.43;;;2.35;;
83247;SDS011;73465;51.038;7.052;2024-03-25T09:13:12;9.23;;;2.20;;
83247;SDS011;73465;51.038;7.052;2024-03-25T09:15:38;13.30;;;2.40;;
83247;SDS011;73465;51.038;7.052;2024-03-25T09:18:04;10.90;;;1.95;;
83247;SDS011;73465;51.038;7.052;2024-03-25T09:20:30;10.55;;;2.05;;
83247;SDS011;73465;51.038;7.052;2024-03-25T09:22:56;9.00;;;2.17;;
83247;SDS011;73465;51.038;7.052;2024-03-25T09:25:21;13.57;;;2.72;;
83247;SDS011;73465;51.038;7.052;2024-03-25T09:27:48;9.50;;;2.97;;
83247;SDS011;73465;51.038;7.052;2024-03-25T09:30:14;11.85;;;2.50;;
83247;SDS011;73465;51.038;7.052;2024-03-25T09:32:40;15.30;;;3.50;;
83247;SDS011;73465;51.038;7.052;2024-03-25T09:35:09;17.73;;;3.20;;
83247;SDS011;73465;51.038;7.052;2024-03-25T09:37:36;14.75;;;2.60;;
83247;SDS011;73465;51.038;7.052;2024-03-25T09:40:02;8.50;;;2.03;;
83247;SDS011;73465;51.038;7.052;2024-03-25T09:42:48;14.18;;;2.58;;
83247;SDS011;73465;51.038;7.052;2024-03-25T09:45:16;8.50;;;2.13;;
83247;SDS011;73465;51.038;7.052;2024-03-25T09:47:46;8.98;;;1.80;;
83247;SDS011;73465;51.038;7.052;2024-03-25T09:50:13;8.90;;;2.28;;
83247;SDS011;73465;51.038;7.052;2024-03-25T09:52:44;7.60;;;2.08;;
83247;SDS011;73465;51.038;7.052;2024-03-25T09:55:09;11.20;;;2.13;;
83247;SDS011;73465;51.038;7.052;2024-03-25T09:57:35;9.27;;;2.10;;
83247;SDS011;73465;51.038;7.052;2024-03-25T10:00:01;8.23;;;2.17;;
83247;SDS011;73465;51.038;7.052;2024-03-25T10:02:29;9.95;;;1.90;;
83247;SDS011;73465;51.038;7.052;2024-03-25T10:04:56;7.65;;;1.92;;
83247;SDS011;73465;51.038;7.052;2024-03-25T10:07:22;16.42;;;2.78;;
83247;SDS011;73465;51.038;7.052;2024-03-25T10:09:49;14.10;;;2.50;;
83247;SDS011;73465;51.038;7.052;2024-03-25T10:12:14;10.25;;;2.53;;
83247;SDS011;73465;51.038;7.052;2024-03-25T10:14:40;9.27;;;1.90;;
83247;SDS011;73465;51.038;7.052;2024-03-25T10:17:05;7.05;;;2.63;;
83247;SDS011;73465;51.038;7.052;2024-03-25T10:19:32;7.75;;;1.70;;
83247;SDS011;73465;51.038;7.052;2024-03-25T10:22:02;6.78;;;1.70;;
83247;SDS011;73465;51.038;7.052;2024-03-25T10:24:38;14.32;;;2.40;;
83247;SDS011;73465;51.038;7.052;2024-03-25T10:27:16;7.30;;;1.90;;
83247;SDS011;73465;51.038;7.052;2024-03-25T10:29:55;7.30;;;2.30;;
83247;SDS011;73465;51.038;7.052;2024-03-25T10:32:20;10.23;;;2.03;;
83247;SDS011;73465;51.038;7.052;2024-03-25T10:34:49;10.05;;;2.40;;
83247;SDS011;73465;51.038;7.052;2024-03-25T10:37:15;9.85;;;2.25;;
83247;SDS011;73465;51.038;7.052;2024-03-25T10:39:50;11.48;;;2.38;;
83247;SDS011;73465;51.038;7.052;2024-03-25T10:42:19;10.52;;;2.30;;
83247;SDS011;73465;51.038;7.052;2024-03-25T10:44:46;8.90;;;2.53;;
83247;SDS011;73465;51.038;7.052;2024-03-25T10:47:14;7.20;;;2.10;;
83247;SDS011;73465;51.038;7.052;2024-03-25T10:49:57;8.63;;;2.33;;
83247;SDS011;73465;51.038;7.052;2024-03-25T10:52:24;7.07;;;1.85;;
83247;SDS011;73465;51.038;7.052;2024-03-25T10:54:51;8.82;;;2.20;;
83247;SDS011;73465;51.038;7.052;2024-03-25T10:57:19;9.60;;;2.25;;
83247;SDS011;73465;51.038;7.052;2024-03-25T10:59:45;7.05;;;1.88;;
83247;SDS011;73465;51.038;7.052;2024-03-25T11:02:10;10.32;;;2.00;;
83247;SDS011;73465;51.038;7.052;2024-03-25T11:04:36;7.63;;;1.70;;
83247;SDS011;73465;51.038;7.052;2024-03-25T11:07:08;6.47;;;1.58;;
83247;SDS011;73465;51.038;7.052;2024-03-25T11:09:35;7.90;;;2.03;;
83247;SDS011;73465;51.038;7.052;2024-03-25T11:12:00;8.25;;;2.45;;
83247;SDS011;73465;51.038;7.052;2024-03-25T11:14:26;6.72;;;2.35;;
83247;SDS011;73465;51.038;7.052;2024-03-25T11:16:53;6.88;;;2.00;;
83247;SDS011;73465;51.038;7.052;2024-03-25T11:19:20;10.77;;;2.20;;
83247;SDS011;73465;51.038;7.052;2024-03-25T11:21:50;4.15;;;1.55;;
83247;SDS011;73465;51.038;7.052;2024-03-25T11:24:15;7.45;;;1.63;;
83247;SDS011;73465;51.038;7.052;2024-03-25T11:26:42;6.53;;;1.88;;
83247;SDS011;73465;51.038;7.052;2024-03-25T11:29:07;6.13;;;1.52;;
83247;SDS011;73465;51.038;7.052;2024-03-25T11:31:33;6.72;;;1.33;;
83247;SDS011;73465;51.038;7.052;2024-03-25T11:34:03;7.80;;;1.50;;
83247;SDS011;73465;51.038;7.052;2024-03-25T11:36:29;5.35;;;1.63;;
83247;SDS011;73465;51.038;7.052;2024-03-25T11:39:05;5.90;;;1.17;;
83247;SDS011;73465;51.038;7.052;2024-03-25T11:41:34;13.48;;;1.63;;
83247;SDS011;73465;51.038;7.052;2024-03-25T11:44:10;7.03;;;1.30;;
83247;SDS011;73465;51.038;7.052;2024-03-25T11:46:37;8.90;;;1.40;;
83247;SDS011;73465;51.038;7.052;2024-03-25T11:49:05;8.77;;;1.73;;
83247;SDS011;73465;51.038;7.052;2024-03-25T11:51:33;11.70;;;2.13;;
83247;SDS011;73465;51.038;7.052;2024-03-25T11:54:02;9.52;;;2.00;;
83247;SDS011;73465;51.038;7.052;2024-03-25T11:56:28;7.57;;;1.92;;
83247;SDS011;73465;51.038;7.052;2024-03-25T11:58:55;6.50;;;1.48;;
83247;SDS011;73465;51.038;7.052;2024-03-25T12:01:21;5.47;;;1.77;;
83247;SDS011;73465;51.038;7.052;2024-03-25T12:03:47;7.90;;;1.83;;
83247;SDS011;73465;51.038;7.052;2024-03-25T12:06:12;9.90;;;2.08;;
83247;SDS011;73465;51.038;7.052;2024-03-25T12:08:38;9.63;;;1.65;;
83247;SDS011;73465;51.038;7.052;2024-03-25T12:11:23;13.57;;;3.00;;
83247;SDS011;73465;51.038;7.052;2024-03-25T12:13:49;10.18;;;2.22;;
83247;SDS011;73465;51.038;7.052;2024-03-25T12:16:14;7.93;;;1.55;;
83247;SDS011;73465;51.038;7.052;2024-03-25T12:18:40;10.20;;;1.90;;
83247;SDS011;73465;51.038;7.052;2024-03-25T12:21:06;7.32;;;1.80;;
83247;SDS011;73465;51.038;7.052;2024-03-25T12:23:32;10.15;;;1.83;;
83247;SDS011;73465;51.038;7.052;2024-03-25T12:25:59;7.25;;;1.58;;
83247;SDS011;73465;51.038;7.052;2024-03-25T12:28:25;4.88;;;1.30;;
83247;SDS011;73465;51.038;7.052;2024-03-25T12:30:51;5.53;;;1.60;;
83247;SDS011;73465;51.038;7.052;2024-03-25T12:33:21;5.35;;;1.40;;
83247;SDS011;73465;51.038;7.052;2024-03-25T12:35:48;7.75;;;2.25;;
83247;SDS011;73465;51.038;7.052;2024-03-25T12:38:27;6.68;;;1.77;;
83247;SDS011;73465;51.038;7.052;2024-03-25T12:40:54;10.77;;;1.67;;
83247;SDS011;73465;51.038;7.052;2024-03-25T12:43:28;5.45;;;1.23;;
83247;SDS011;73465;51.038;7.052;2024-03-25T12:45:56;7.68;;;1.80;;
83247;SDS011;73465;51.038;7.052;2024-03-25T12:48:22;4.63;;;1.52;;
83247;SDS011;73465;51.038;7.052;2024-03-25T12:50:47;6.45;;;1.52;;
83247;SDS011;73465;51.038;7.052;2024-03-25T12:53:16;6.60;;;1.52;;
83247;SDS011;73465;51.038;7.052;2024-03-25T12:55:43;4.47;;;1.40;;
83247;SDS011;73465;51.038;7.052;2024-03-25T12:58:09;7.60;;;1.50;;
83247;SDS011;73465;51.038;7.052;2024-03-25T13:00:35;5.95;;;1.90;;
83247;SDS011;73465;51.038;7.052;2024-03-25T13:03:01;5.82;;;1.42;;
83247;SDS011;73465;51.038;7.052;2024-03-25T13:05:27;5.72;;;1.17;;
83247;SDS011;73465;51.038;7.052;2024-03-25T13:07:53;4.43;;;1.30;;
83247;SDS011;73465;51.038;7.052;2024-03-25T13:10:18;5.43;;;1.25;;
83247;SDS011;73465;51.038;7.052;2024-03-25T13:12:44;4.25;;;1.05;;
83247;SDS011;73465;51.038;7.052;2024-03-25T13:15:10;5.47;;;1.10;;
83247;SDS011;73465;51.038;7.052;2024-03-25T13:17:35;4.30;;;1.33;;
83247;SDS011;73465;51.038;7.052;2024-03-25T13:20:01;5.70;;;1.17;;
83247;SDS011;73465;51.038;7.052;2024-03-25T13:22:26;5.00;;;1.40;;
83247;SDS011;73465;51.038;7.052;2024-03-25T13:24:55;7.10;;;1.13;;
83247;SDS011;73465;51.038;7.052;2024-03-25T13:27:21;4.80;;;1.08;;
83247;SDS011;73465;51.038;7.052;2024-03-25T13:29:46;7.72;;;1.73;;
83247;SDS011;73465;51.038;7.052;2024-03-25T13:32:11;8.48;;;1.75;;
83247;SDS011;73465;51.038;7.052;2024-03-25T13:34:37;6.93;;;2.05;;
83247;SDS011;73465;51.038;7.052;2024-03-25T13:37:02;5.57;;;1.45;;
83247;SDS011;73465;51.038;7.052;2024-03-25T13:39:28;4.63;;;1.10;;
83247;SDS011;73465;51.038;7.052;2024-03-25T13:41:53;6.55;;;1.33;;
83247;SDS011;73465;51.038;7.052;2024-03-25T13:44:18;5.05;;;1.20;;
83247;SDS011;73465;51.038;7.052;2024-03-25T13:46:43;4.28;;;1.38;;
83247;SDS011;73465;51.038;7.052;2024-03-25T13:49:09;4.50;;;1.10;;
83247;SDS011;73465;51.038;7.052;2024-03-25T13:51:36;4.10;;;1.00;;
83247;SDS011;73465;51.038;7.052;2024-03-25T13:54:01;3.70;;;1.15;;
83247;SDS011;73465;51.038;7.052;2024-03-25T13:56:27;3.47;;;0.93;;
83247;SDS011;73465;51.038;7.052;2024-03-25T13:58:53;6.78;;;1.15;;
83247;SDS011;73465;51.038;7.052;2024-03-25T14:01:18;4.88;;;1.10;;
83247;SDS011;73465;51.038;7.052;2024-03-25T14:03:45;3.97;;;1.27;;
83247;SDS011;73465;51.038;7.052;2024-03-25T14:06:11;4.70;;;0.90;;
83247;SDS011;73465;51.038;7.052;2024-03-25T14:08:36;4.15;;;1.23;;
83247;SDS011;73465;51.038;7.052;2024-03-25T14:11:02;6.47;;;1.10;;
83247;SDS011;73465;51.038;7.052;2024-03-25T14:13:27;4.68;;;1.15;;
83247;SDS011;73465;51.038;7.052;2024-03-25T14:15:54;5.70;;;1.38;;
83247;SDS011;73465;51.038;7.052;2024-03-25T14:18:19;4.60;;;1.40;;
83247;SDS011;73465;51.038;7.052;2024-03-25T14:20:44;2.42;;;0.70;;
83247;SDS011;73465;51.038;7.052;2024-03-25T14:23:10;4.55;;;1.25;;
83247;SDS011;73465;51.038;7.052;2024-03-25T14:25:37;4.10;;;1.05;;
83247;SDS011;73465;51.038;7.052;2024-03-25T14:28:02;5.40;;;1.27;;
83247;SDS011;73465;51.038;7.052;2024-03-25T14:30:28;4.35;;;0.88;;
83247;SDS011;73465;51.038;7.052;2024-03-25T14:32:53;3.63;;;1.08;;
83247;SDS011;73465;51.038;7.052;2024-03-25T14:35:20;4.25;;;1.08;;